createdAt,value
2023-02-19T00:01:31.150Z,29.25
2023-02-19T00:04:00.813Z,29.63
2023-02-19T00:06:28.711Z,29.05
2023-02-19T00:08:55.711Z,30.08
2023-02-19T00:11:24.484Z,30.70
2023-02-19T00:13:53.203Z,32.22
2023-02-19T00:16:22.371Z,35.42
2023-02-19T00:18:49.213Z,31.48
2023-02-19T00:21:16.019Z,31.58
2023-02-19T00:23:42.522Z,32.08
2023-02-19T00:26:18.135Z,39.03
2023-02-19T00:28:47.956Z,31.35
2023-02-19T00:31:19.158Z,37.38
2023-02-19T00:36:13.557Z,31.17
2023-02-19T00:38:41.839Z,31.67
2023-02-19T00:41:21.295Z,32.42
2023-02-19T00:44:01.999Z,36.30
2023-02-19T00:46:36.603Z,34.42
2023-02-19T00:49:04.195Z,34.35
2023-02-19T00:51:33.680Z,36.00
2023-02-19T00:54:00.475Z,38.83
2023-02-19T00:56:27.400Z,46.22
2023-02-19T00:58:54.171Z,36.30
2023-02-19T01:01:21.033Z,38.50
2023-02-19T01:03:47.755Z,35.80
2023-02-19T01:06:17.058Z,39.90
2023-02-19T01:08:44.334Z,40.15
2023-02-19T01:11:14.127Z,44.20
2023-02-19T01:13:43.555Z,40.35
2023-02-19T01:16:15.739Z,43.95
2023-02-19T01:18:43.209Z,42.42
2023-02-19T01:21:13.851Z,38.08
2023-02-19T01:23:40.734Z,34.72
2023-02-19T01:26:09.717Z,39.65
2023-02-19T01:28:36.315Z,41.20
2023-02-19T01:31:04.724Z,48.25
2023-02-19T01:33:31.495Z,44.42
2023-02-19T01:35:58.044Z,48.35
2023-02-19T01:38:24.624Z,44.60
2023-02-19T01:40:58.425Z,44.78
2023-02-19T01:43:25.107Z,44.33
2023-02-19T01:45:53.234Z,48.70
2023-02-19T01:48:38.370Z,46.30
2023-02-19T01:51:14.909Z,46.88
2023-02-19T01:53:44.060Z,50.45
2023-02-19T01:56:16.104Z,46.28
2023-02-19T01:58:42.782Z,62.05
2023-02-19T02:01:09.688Z,48.05
2023-02-19T02:03:38.466Z,47.70
2023-02-19T02:06:09.595Z,54.88
2023-02-19T02:08:55.367Z,60.60
2023-02-19T02:11:22.850Z,62.17
2023-02-19T02:13:49.766Z,49.90
2023-02-19T02:16:25.540Z,64.50
2023-02-19T02:18:54.788Z,56.58
2023-02-19T02:21:48.228Z,54.03
2023-02-19T02:24:36.992Z,56.78
2023-02-19T02:27:22.610Z,59.30
2023-02-19T02:30:03.674Z,58.17
2023-02-19T02:32:35.929Z,63.92
2023-02-19T02:35:13.398Z,59.58
2023-02-19T02:37:42.302Z,63.10
2023-02-19T02:40:10.845Z,63.90
2023-02-19T02:42:39.763Z,65.78
2023-02-19T02:45:35.023Z,64.35
2023-02-19T02:48:28.328Z,58.83
2023-02-19T02:51:14.775Z,60.05
2023-02-19T02:54:11.245Z,64.47
2023-02-19T02:56:41.120Z,54.42
2023-02-19T02:59:10.260Z,58.40
2023-02-19T03:02:08.687Z,64.50
2023-02-19T03:05:04.648Z,65.03
2023-02-19T03:07:41.980Z,64.60
2023-02-19T03:10:11.640Z,69.03
2023-02-19T03:12:58.567Z,57.30
2023-02-19T03:15:48.378Z,60.25
2023-02-19T03:18:34.851Z,65.00
2023-02-19T03:21:04.364Z,65.75
2023-02-19T03:23:51.674Z,68.50
2023-02-19T03:26:19.309Z,79.00
2023-02-19T03:29:09.779Z,75.88
2023-02-19T03:31:39.710Z,71.95
2023-02-19T03:34:10.769Z,72.47
2023-02-19T03:36:44.616Z,72.88
2023-02-19T03:39:14.675Z,68.95
2023-02-19T03:41:51.095Z,62.78
2023-02-19T03:44:41.011Z,64.68
2023-02-19T03:47:27.672Z,76.80
2023-02-19T03:50:06.746Z,69.60
2023-02-19T03:53:03.926Z,71.38
2023-02-19T03:55:52.472Z,75.43
2023-02-19T03:58:32.609Z,73.07
2023-02-19T04:01:04.231Z,70.18
2023-02-19T04:03:38.383Z,90.15
2023-02-19T04:06:09.802Z,68.93
2023-02-19T04:08:36.968Z,79.45
2023-02-19T04:11:06.277Z,66.28
2023-02-19T04:13:44.552Z,72.95
2023-02-19T04:16:17.897Z,77.13
2023-02-19T04:18:47.092Z,75.72
2023-02-19T04:21:14.663Z,77.72
2023-02-19T04:23:43.587Z,73.90
2023-02-19T04:26:11.482Z,80.40
2023-02-19T04:28:38.556Z,75.53
2023-02-19T04:31:05.462Z,74.57
2023-02-19T04:33:31.944Z,66.78
2023-02-19T04:35:58.440Z,80.75
2023-02-19T04:38:24.926Z,70.43
2023-02-19T04:40:51.456Z,77.45
2023-02-19T04:43:18.547Z,71.40
2023-02-19T04:45:45.056Z,69.03
2023-02-19T04:48:11.626Z,64.45
2023-02-19T04:50:39.432Z,53.78
2023-02-19T04:53:06.467Z,73.90
2023-02-19T04:55:36.731Z,57.38
2023-02-19T04:58:03.200Z,52.88
2023-02-19T05:00:29.726Z,61.53
2023-02-19T05:02:56.192Z,62.58
2023-02-19T05:05:22.733Z,46.25
2023-02-19T05:07:49.446Z,45.30
2023-02-19T05:10:16.049Z,46.80
2023-02-19T05:12:42.501Z,56.42
2023-02-19T05:15:09.170Z,60.53
2023-02-19T05:17:35.816Z,48.50
2023-02-19T05:20:02.389Z,46.63
2023-02-19T05:22:29.801Z,42.47
2023-02-19T05:24:56.296Z,52.13
2023-02-19T05:27:22.885Z,44.72
2023-02-19T05:29:49.377Z,44.85
2023-02-19T05:32:15.980Z,52.10
2023-02-19T05:34:42.781Z,45.35
2023-02-19T05:37:12.039Z,50.35
2023-02-19T05:39:38.599Z,42.72
2023-02-19T05:42:05.161Z,38.58
2023-02-19T05:44:31.868Z,37.80
2023-02-19T05:46:58.403Z,43.30
2023-02-19T05:49:25.320Z,39.58
2023-02-19T05:51:51.863Z,43.35
2023-02-19T05:54:18.375Z,36.60
2023-02-19T05:56:44.940Z,39.63
2023-02-19T05:59:22.672Z,38.13
2023-02-19T06:01:50.875Z,38.17
2023-02-19T06:04:19.852Z,38.53
2023-02-19T06:06:47.343Z,31.25
2023-02-19T06:09:14.137Z,44.13
2023-02-19T06:11:40.751Z,40.90
2023-02-19T06:14:07.497Z,34.38
2023-02-19T06:16:34.371Z,41.42
2023-02-19T06:19:04.285Z,45.08
2023-02-19T06:21:30.835Z,53.42
2023-02-19T06:23:57.467Z,41.83
2023-02-19T06:26:25.174Z,31.27
2023-02-19T06:28:53.022Z,35.25
2023-02-19T06:31:20.549Z,38.00
2023-02-19T06:33:47.178Z,36.00
2023-02-19T06:36:17.262Z,40.42
2023-02-19T06:38:44.001Z,36.63
2023-02-19T06:41:11.384Z,45.08
2023-02-19T06:43:38.213Z,44.10
2023-02-19T06:46:06.212Z,38.97
2023-02-19T06:48:33.526Z,43.15
2023-02-19T06:51:00.099Z,42.88
2023-02-19T06:53:27.581Z,34.45
2023-02-19T06:56:02.863Z,43.38
2023-02-19T06:58:29.661Z,41.90
2023-02-19T07:00:56.266Z,42.13
2023-02-19T07:03:23.147Z,47.85
2023-02-19T07:05:49.966Z,47.90
2023-02-19T07:08:19.432Z,32.72
2023-02-19T07:10:46.047Z,44.55
2023-02-19T07:13:12.642Z,41.58
2023-02-19T07:15:39.257Z,42.63
2023-02-19T07:18:10.135Z,48.95
2023-02-19T07:20:36.977Z,45.15
2023-02-19T07:23:03.587Z,40.50
2023-02-19T07:25:30.085Z,49.25
2023-02-19T07:27:56.860Z,40.53
2023-02-19T07:30:23.415Z,29.60
2023-02-19T07:32:50.156Z,35.85
2023-02-19T07:35:16.814Z,32.03
2023-02-19T07:37:43.360Z,31.25
2023-02-19T07:40:10.170Z,37.50
2023-02-19T07:42:36.656Z,30.80
2023-02-19T07:45:03.210Z,31.40
2023-02-19T07:47:30.128Z,43.60
2023-02-19T07:49:56.894Z,32.65
2023-02-19T07:52:23.655Z,27.85
2023-02-19T07:54:50.282Z,30.65
2023-02-19T07:57:16.843Z,38.42
2023-02-19T07:59:43.401Z,49.65
2023-02-19T08:02:34.989Z,30.23
2023-02-19T08:05:01.664Z,38.13
2023-02-19T08:07:35.200Z,39.47
2023-02-19T08:10:21.441Z,47.40
2023-02-19T08:13:17.010Z,40.53
2023-02-19T08:15:43.693Z,33.03
2023-02-19T08:18:10.805Z,39.85
2023-02-19T08:20:37.317Z,42.00
2023-02-19T08:23:04.039Z,43.80
2023-02-19T08:25:30.820Z,45.25
2023-02-19T08:27:57.341Z,46.30
2023-02-19T08:30:23.961Z,26.85
2023-02-19T08:32:50.562Z,41.55
2023-02-19T08:35:17.239Z,28.98
2023-02-19T08:37:43.774Z,36.35
2023-02-19T08:40:10.624Z,26.88
2023-02-19T08:42:37.482Z,30.48
2023-02-19T08:45:04.379Z,42.42
2023-02-19T08:47:31.192Z,35.15
2023-02-19T08:49:57.695Z,32.90
2023-02-19T08:52:24.251Z,31.70
2023-02-19T08:54:50.770Z,31.45
2023-02-19T08:57:17.696Z,26.35
2023-02-19T08:59:44.422Z,24.75
2023-02-19T09:02:12.643Z,28.92
2023-02-19T09:04:39.590Z,25.73
2023-02-19T09:07:07.796Z,30.73
2023-02-19T09:09:37.398Z,26.98
2023-02-19T09:12:11.446Z,28.65
2023-02-19T09:14:38.362Z,28.05
2023-02-19T09:17:06.269Z,31.48
2023-02-19T09:19:33.095Z,24.15
2023-02-19T09:21:59.696Z,25.35
2023-02-19T09:24:26.377Z,23.30
2023-02-19T09:26:54.443Z,26.80
2023-02-19T09:29:22.557Z,31.65
2023-02-19T09:31:49.581Z,25.67
2023-02-19T09:34:16.232Z,30.90
2023-02-19T09:36:42.765Z,23.20
2023-02-19T09:39:10.452Z,21.77
2023-02-19T09:41:46.335Z,19.70
2023-02-19T09:44:18.451Z,19.55
2023-02-19T09:46:48.151Z,27.33
2023-02-19T09:49:29.270Z,27.60
2023-02-19T09:52:04.260Z,18.33
2023-02-19T09:54:31.963Z,20.30
2023-02-19T09:57:01.327Z,16.40
2023-02-19T09:59:40.476Z,23.27
2023-02-19T10:02:21.267Z,12.57
2023-02-19T10:04:48.660Z,19.27
2023-02-19T10:07:17.217Z,12.68
2023-02-19T10:09:53.351Z,22.73
2023-02-19T10:12:26.970Z,20.80
2023-02-19T10:15:00.136Z,22.02
2023-02-19T10:17:30.273Z,16.48
2023-02-19T10:19:57.711Z,16.42
2023-02-19T10:22:25.105Z,14.73
2023-02-19T10:24:55.687Z,10.80
2023-02-19T10:27:22.412Z,16.70
2023-02-19T10:29:50.325Z,14.30
2023-02-19T10:32:24.049Z,9.20
2023-02-19T10:35:11.798Z,11.38
2023-02-19T10:37:46.600Z,11.95
2023-02-19T10:40:21.039Z,16.42
2023-02-19T10:42:56.446Z,13.25
2023-02-19T10:45:44.109Z,16.13
2023-02-19T10:48:38.364Z,16.15
2023-02-19T10:51:21.810Z,16.08
2023-02-19T10:54:02.867Z,17.38
2023-02-19T10:56:33.689Z,16.45
2023-02-19T10:59:23.339Z,14.73
2023-02-19T11:02:03.734Z,13.50
2023-02-19T11:04:35.026Z,10.63
2023-02-19T11:07:15.069Z,10.05
2023-02-19T11:09:45.346Z,7.95
2023-02-19T11:12:13.123Z,10.20
2023-02-19T11:14:42.738Z,10.80
2023-02-19T11:17:25.369Z,11.82
2023-02-19T11:19:54.356Z,14.32
2023-02-19T11:22:28.723Z,15.60
2023-02-19T11:24:58.503Z,14.63
2023-02-19T11:27:26.487Z,19.00
2023-02-19T11:29:53.004Z,14.55
2023-02-19T11:32:27.882Z,20.30
2023-02-19T11:35:14.547Z,21.77
2023-02-19T11:37:53.824Z,20.25
2023-02-19T11:40:22.316Z,26.40
2023-02-19T11:42:58.814Z,18.88
2023-02-19T11:45:40.778Z,22.17
2023-02-19T11:48:42.420Z,22.25
2023-02-19T11:53:37.259Z,18.92
2023-02-19T11:56:33.757Z,17.77
2023-02-19T11:59:05.687Z,13.88
2023-02-19T12:02:09.964Z,13.40
2023-02-19T12:05:09.979Z,22.05
2023-02-19T12:07:49.063Z,16.40
2023-02-19T12:10:36.712Z,19.63
2023-02-19T12:13:15.090Z,16.52
2023-02-19T12:16:16.042Z,17.20
2023-02-19T12:18:57.477Z,17.30
2023-02-19T12:21:43.409Z,17.83
2023-02-19T12:24:22.991Z,15.75
2023-02-19T12:27:03.595Z,14.73
2023-02-19T12:29:42.863Z,18.83
2023-02-19T12:32:27.877Z,13.02
2023-02-19T12:35:04.906Z,14.60
2023-02-19T12:37:57.056Z,12.20
2023-02-19T12:40:26.397Z,18.00
2023-02-19T12:43:13.735Z,17.90
2023-02-19T12:45:48.924Z,17.25
2023-02-19T12:48:24.091Z,17.77
2023-02-19T12:50:55.776Z,16.08
2023-02-19T12:53:38.307Z,12.88
2023-02-19T12:56:11.061Z,17.25
2023-02-19T12:58:43.169Z,21.58
2023-02-19T13:01:16.018Z,19.13
2023-02-19T13:03:49.248Z,20.10
2023-02-19T13:06:27.276Z,26.88
2023-02-19T13:09:06.298Z,19.17
2023-02-19T13:11:44.254Z,19.33
2023-02-19T13:14:34.626Z,23.48
2023-02-19T13:17:08.609Z,28.27
2023-02-19T13:19:36.935Z,20.33
2023-02-19T13:22:34.786Z,21.60
2023-02-19T13:25:02.158Z,23.05
2023-02-19T13:27:48.852Z,21.90
2023-02-19T13:30:31.172Z,22.45
2023-02-19T13:33:22.523Z,24.85
2023-02-19T13:36:05.879Z,21.55
2023-02-19T13:38:41.265Z,26.27
2023-02-19T13:41:17.887Z,27.23
2023-02-19T13:43:46.829Z,19.30
2023-02-19T13:46:16.291Z,25.58
2023-02-19T13:48:44.479Z,25.73
2023-02-19T13:51:18.676Z,28.63
2023-02-19T13:53:45.169Z,21.27
2023-02-19T13:56:29.886Z,23.83
2023-02-19T13:59:22.517Z,24.83
2023-02-19T14:01:54.994Z,21.45
2023-02-19T14:04:24.637Z,21.40
2023-02-19T14:07:03.251Z,19.27
2023-02-19T14:09:39.849Z,21.20
2023-02-19T14:12:15.036Z,18.40
2023-02-19T14:14:51.592Z,17.50
2023-02-19T14:17:36.221Z,21.83
2023-02-19T14:20:08.572Z,21.38
2023-02-19T14:22:47.640Z,21.73
2023-02-19T14:25:31.332Z,20.08
2023-02-19T14:28:09.632Z,25.05
2023-02-19T14:30:51.441Z,30.80
2023-02-19T14:33:20.998Z,21.02
2023-02-19T14:35:51.072Z,24.30
2023-02-19T14:38:24.020Z,21.77
2023-02-19T14:40:52.960Z,12.05
2023-02-19T14:43:21.474Z,15.63
2023-02-19T14:45:52.968Z,17.17
2023-02-19T14:48:35.347Z,15.15
2023-02-19T14:51:10.513Z,16.55
2023-02-19T14:53:39.679Z,17.80
2023-02-19T14:56:07.970Z,16.75
2023-02-19T14:58:36.870Z,17.20
2023-02-19T15:01:05.361Z,19.10
2023-02-19T15:03:34.801Z,19.27
2023-02-19T15:06:17.461Z,17.30
2023-02-19T15:08:46.940Z,23.45
2023-02-19T15:11:20.165Z,19.45
2023-02-19T15:13:50.984Z,13.05
2023-02-19T15:16:23.672Z,17.35
2023-02-19T15:18:51.964Z,16.25
2023-02-19T15:21:30.099Z,20.65
2023-02-19T15:23:59.514Z,19.70
2023-02-19T15:26:54.002Z,20.65
2023-02-19T15:29:23.030Z,16.50
2023-02-19T15:31:54.932Z,19.77
2023-02-19T15:34:22.995Z,16.50
2023-02-19T15:36:51.586Z,15.93
2023-02-19T15:39:51.049Z,21.85
2023-02-19T15:42:21.012Z,26.45
2023-02-19T15:45:01.929Z,17.98
2023-02-19T15:47:33.222Z,19.50
2023-02-19T15:50:11.433Z,20.70
2023-02-19T15:52:49.699Z,15.85
2023-02-19T15:55:20.904Z,21.45
2023-02-19T15:57:54.646Z,19.77
2023-02-19T16:00:27.171Z,20.05
2023-02-19T16:02:53.714Z,21.20
2023-02-19T16:05:25.752Z,16.08
2023-02-19T16:08:17.504Z,16.58
2023-02-19T16:10:55.323Z,13.85
2023-02-19T16:13:30.388Z,11.10
2023-02-19T16:16:24.356Z,12.45
2023-02-19T16:18:52.142Z,8.85
2023-02-19T16:21:22.074Z,4.10
2023-02-19T16:23:54.459Z,4.25
2023-02-19T16:26:21.516Z,5.43
2023-02-19T16:28:54.629Z,5.20
2023-02-19T16:31:22.645Z,10.73
2023-02-19T16:33:50.242Z,4.22
2023-02-19T16:36:16.689Z,4.97
2023-02-19T16:39:07.811Z,5.45
2023-02-19T16:41:39.878Z,10.07
2023-02-19T16:44:25.061Z,5.95
2023-02-19T16:46:57.191Z,4.55
2023-02-19T16:49:24.315Z,9.02
2023-02-19T16:51:51.210Z,10.32
2023-02-19T16:54:17.712Z,8.90
2023-02-19T16:56:44.206Z,7.75
2023-02-19T16:59:10.753Z,8.80
2023-02-19T17:01:37.639Z,7.65
2023-02-19T17:04:09.785Z,10.40
2023-02-19T17:06:39.639Z,9.90
2023-02-19T17:09:08.436Z,6.60
2023-02-19T17:11:35.373Z,10.32
2023-02-19T17:14:02.327Z,9.57
2023-02-19T17:16:40.383Z,7.95
2023-02-19T17:19:16.818Z,7.28
2023-02-19T17:21:44.428Z,9.50
2023-02-19T17:24:11.571Z,10.65
2023-02-19T17:26:38.097Z,6.93
2023-02-19T17:29:06.796Z,5.55
2023-02-19T17:31:34.160Z,7.32
2023-02-19T17:34:00.989Z,6.63
2023-02-19T17:36:32.232Z,8.82
2023-02-19T17:41:25.990Z,6.93
2023-02-19T17:43:52.927Z,12.82
2023-02-19T17:46:22.240Z,8.30
2023-02-19T17:48:48.841Z,8.75
2023-02-19T17:51:15.411Z,17.42
2023-02-19T17:53:42.483Z,14.15
2023-02-19T17:56:10.438Z,7.40
2023-02-19T17:58:36.987Z,10.68
2023-02-19T18:01:03.609Z,5.18
2023-02-19T18:03:30.211Z,4.07
2023-02-19T18:05:56.761Z,6.68
2023-02-19T18:08:23.261Z,5.47
2023-02-19T18:10:49.791Z,5.70
2023-02-19T18:13:16.301Z,10.35
2023-02-19T18:15:42.880Z,6.72
2023-02-19T18:18:09.752Z,4.05
2023-02-19T18:20:36.494Z,3.15
2023-02-19T18:23:03.062Z,4.38
2023-02-19T18:25:29.908Z,2.85
2023-02-19T18:27:58.512Z,6.15
2023-02-19T18:30:25.290Z,3.60
2023-02-19T18:32:51.905Z,2.85
2023-02-19T18:35:19.575Z,5.38
2023-02-19T18:37:49.970Z,8.77
2023-02-19T18:40:16.674Z,6.20
2023-02-19T18:42:43.249Z,4.15
2023-02-19T18:45:09.793Z,2.40
2023-02-19T18:47:36.937Z,5.53
2023-02-19T18:50:04.156Z,2.90
2023-02-19T18:52:32.397Z,3.22
2023-02-19T18:54:59.506Z,8.18
2023-02-19T18:57:26.434Z,2.55
2023-02-19T18:59:53.190Z,4.35
2023-02-19T19:02:19.917Z,2.25
2023-02-19T19:04:52.159Z,2.15
2023-02-19T19:07:19.850Z,3.65
2023-02-19T19:09:47.315Z,2.63
2023-02-19T19:12:14.629Z,4.88
2023-02-19T19:14:41.299Z,5.35
2023-02-19T19:17:07.995Z,4.03
2023-02-19T19:19:34.834Z,4.18
2023-02-19T19:22:01.574Z,2.25
2023-02-19T19:24:28.179Z,3.75
2023-02-19T19:26:54.849Z,4.97
2023-02-19T19:29:22.355Z,3.03
2023-02-19T19:31:50.164Z,6.03
2023-02-19T19:34:17.098Z,3.75
2023-02-19T19:36:43.768Z,7.20
2023-02-19T19:39:10.948Z,6.82
2023-02-19T19:41:37.514Z,7.13
2023-02-19T19:44:05.318Z,3.08
2023-02-19T19:46:32.770Z,5.68
2023-02-19T19:48:59.744Z,5.07
2023-02-19T19:51:33.515Z,5.75
2023-02-19T19:54:01.890Z,3.45
2023-02-19T19:56:28.446Z,3.92
2023-02-19T19:58:55.274Z,5.90
2023-02-19T20:01:23.053Z,7.13
2023-02-19T20:03:51.017Z,6.57
2023-02-19T20:06:28.866Z,6.15
2023-02-19T20:08:55.697Z,2.92
2023-02-19T20:11:22.833Z,2.53
2023-02-19T20:13:49.556Z,3.72
2023-02-19T20:16:16.284Z,2.15
2023-02-19T20:18:42.785Z,4.88
2023-02-19T20:21:10.463Z,3.03
2023-02-19T20:23:40.339Z,3.60
2023-02-19T20:26:07.248Z,4.10
2023-02-19T20:28:34.056Z,3.63
2023-02-19T20:31:00.656Z,4.10
2023-02-19T20:33:27.194Z,2.35
2023-02-19T20:35:56.908Z,5.30
2023-02-19T20:38:23.468Z,6.18
2023-02-19T20:40:50.016Z,5.72
2023-02-19T20:43:48.635Z,3.35
2023-02-19T20:46:15.608Z,5.15
2023-02-19T20:48:42.536Z,5.15
2023-02-19T20:51:09.073Z,3.95
2023-02-19T20:53:36.825Z,3.75
2023-02-19T20:56:06.098Z,3.97
2023-02-19T20:58:32.618Z,4.03
2023-02-19T21:00:59.310Z,4.35
2023-02-19T21:03:25.900Z,5.18
2023-02-19T21:05:52.514Z,7.75
2023-02-19T21:08:19.150Z,6.45
2023-02-19T21:10:46.489Z,4.05
2023-02-19T21:13:13.404Z,5.72
2023-02-19T21:15:40.110Z,3.55
2023-02-19T21:18:06.866Z,5.20
2023-02-19T21:20:33.626Z,5.82
2023-02-19T21:23:00.768Z,4.40
2023-02-19T21:25:27.753Z,4.68
2023-02-19T21:27:54.456Z,6.05
2023-02-19T21:30:21.137Z,7.28
2023-02-19T21:32:47.815Z,4.03
2023-02-19T21:35:17.214Z,7.43
2023-02-19T21:37:44.478Z,5.65
2023-02-19T21:40:14.559Z,7.75
2023-02-19T21:42:41.164Z,5.68
2023-02-19T21:45:08.376Z,5.65
2023-02-19T21:47:37.588Z,7.93
2023-02-19T21:50:07.148Z,8.00
2023-02-19T21:52:36.898Z,7.68
2023-02-19T21:55:03.659Z,6.28
2023-02-19T21:57:30.308Z,6.57
2023-02-19T21:59:57.051Z,5.50
2023-02-19T22:02:24.282Z,4.25
2023-02-19T22:04:53.527Z,4.60
2023-02-19T22:07:21.167Z,6.80
2023-02-19T22:09:49.322Z,4.60
2023-02-19T22:12:16.877Z,6.88
2023-02-19T22:14:43.550Z,6.15
2023-02-19T22:17:10.190Z,8.48
2023-02-19T22:19:36.837Z,6.95
2023-02-19T22:22:03.748Z,9.43
2023-02-19T22:24:30.300Z,6.32
2023-02-19T22:26:58.056Z,6.32
2023-02-19T22:29:24.971Z,6.32
2023-02-19T22:31:52.756Z,7.60
2023-02-19T22:34:19.495Z,6.40
2023-02-19T22:36:46.067Z,4.35
2023-02-19T22:39:25.037Z,5.90
2023-02-19T22:41:52.181Z,5.63
2023-02-19T22:44:19.197Z,5.47
2023-02-19T22:46:48.271Z,5.80
2023-02-19T22:49:16.296Z,8.85
2023-02-19T22:51:52.263Z,8.50
2023-02-19T22:54:24.840Z,10.45
2023-02-19T22:56:51.615Z,6.65
2023-02-19T22:59:18.543Z,6.78
2023-02-19T23:01:45.255Z,7.28
2023-02-19T23:04:11.997Z,11.00
2023-02-19T23:06:41.650Z,10.02
2023-02-19T23:09:11.162Z,8.95
2023-02-19T23:11:39.036Z,18.15
2023-02-19T23:14:06.757Z,10.27
2023-02-19T23:16:35.840Z,9.65
2023-02-19T23:19:04.905Z,9.23
2023-02-19T23:21:31.752Z,11.80
2023-02-19T23:23:59.026Z,14.68
2023-02-19T23:26:25.950Z,16.92
2023-02-19T23:28:52.485Z,14.32
2023-02-19T23:31:19.129Z,15.43
2023-02-19T23:33:45.785Z,17.92
2023-02-19T23:36:14.075Z,19.17
2023-02-19T23:38:42.500Z,14.82
2023-02-19T23:41:14.518Z,17.63
2023-02-19T23:43:41.347Z,23.15
2023-02-19T23:46:08.453Z,18.55
2023-02-19T23:48:35.356Z,18.70
2023-02-19T23:51:02.006Z,20.00
2023-02-19T23:53:28.519Z,19.27
2023-02-19T23:55:55.275Z,20.88
2023-02-19T23:58:21.813Z,24.63
